Time;durP1;ratioP1;P1;durP2;ratioP2;P2;SDS_P1;SDS_P2;PMS_P1;PMS_P2;Temp;Humidity;BMP_temperature;BMP_pressure;BME280_temperature;BME280_humidity;BME280_pressure;Samples;Min_cycle;Max_cycle;Signal;HPM_P1;HPM_P2
2023/01/11 00:08:23;;;;;;;82.30;28.80;;;;;;;7.17;100.00;100724.98;682166;1269;139039;-81
2023/01/11 00:23:26;;;;;;;89.30;31.60;;;;;;;7.24;100.00;100721.55;682262;1263;139100;-81
2023/01/11 00:53:51;;;;;;;102.10;33.80;;;;;;;7.31;100.00;100737.97;682197;1261;140321;-81
2023/01/11 01:08:55;;;;;;;103.20;33.40;;;;;;;7.35;100.00;100743.42;682135;1263;139801;-80
2023/01/11 01:23:58;;;;;;;90.10;29.90;;;;;;;7.26;100.00;100737.98;682135;1264;140221;-81
2023/01/11 01:39:04;;;;;;;104.60;34.60;;;;;;;7.29;100.00;100726.62;681931;1267;139701;-81
2023/01/11 01:54:14;;;;;;;97.30;31.80;;;;;;;7.27;100.00;100718.77;681906;1264;139766;-80
2023/01/11 02:09:28;;;;;;;96.60;35.60;;;;;;;7.31;100.00;100710.09;682028;1272;139723;-80
2023/01/11 02:24:51;;;;;;;104.00;32.40;;;;;;;7.28;100.00;100711.88;682133;1263;139788;-80
2023/01/11 02:40:13;;;;;;;104.40;34.70;;;;;;;7.40;100.00;100707.09;681933;1261;140623;-81
2023/01/11 02:55:23;;;;;;;79.90;30.40;;;;;;;7.34;100.00;100692.70;682080;1260;139102;-81
2023/01/11 03:10:40;;;;;;;76.40;28.90;;;;;;;7.33;100.00;100694.29;682181;1262;139138;-80
2023/01/11 03:26:40;;;;;;;66.00;25.30;;;;;;;7.09;100.00;100681.29;682308;1262;141177;-81
2023/01/11 03:41:47;;;;;;;79.20;29.80;;;;;;;7.03;100.00;100669.20;681271;1264;138881;-81
2023/01/11 03:57:15;;;;;;;64.00;24.70;;;;;;;6.92;100.00;100658.24;682253;1263;139661;-80
2023/01/11 04:12:19;;;;;;;61.80;25.60;;;;;;;6.85;100.00;100650.02;682245;1259;140249;-80
2023/01/11 04:27:22;;;;;;;69.10;28.30;;;;;;;6.83;100.00;100636.60;682023;1275;138924;-80
2023/01/11 04:42:25;;;;;;;72.20;26.00;;;;;;;6.75;100.00;100639.04;681971;1264;138944;-81
2023/01/11 04:57:28;;;;;;;61.50;22.70;;;;;;;6.68;100.00;100619.16;682065;1260;140040;-80
2023/01/11 05:12:32;;;;;;;63.20;25.10;;;;;;;6.60;100.00;100596.91;682423;1259;139800;-81
2023/01/11 05:27:35;;;;;;;68.70;27.40;;;;;;;6.55;100.00;100593.26;682146;1260;138982;-79
2023/01/11 05:42:38;;;;;;;52.20;20.60;;;;;;;6.30;100.00;100587.96;681804;1261;140128;-79
2023/01/11 05:57:58;;;;;;;52.80;20.60;;;;;;;6.24;100.00;100586.95;682121;1262;139276;-80
2023/01/11 06:13:26;;;;;;;47.50;19.80;;;;;;;6.08;100.00;100577.54;682182;1261;138958;-80
2023/01/11 06:28:29;;;;;;;49.70;21.30;;;;;;;6.20;100.00;100575.41;682285;1263;139327;-80
2023/01/11 06:43:34;;;;;;;48.60;19.80;;;;;;;6.30;100.00;100572.50;682064;1262;141215;-80
2023/01/11 06:58:37;;;;;;;60.50;24.50;;;;;;;6.19;100.00;100553.91;682332;1263;139891;-79
2023/01/11 07:13:40;;;;;;;54.10;22.00;;;;;;;6.23;100.00;100544.97;682048;1259;139473;-80
2023/01/11 07:28:44;;;;;;;68.50;25.10;;;;;;;6.20;100.00;100543.99;682287;1262;140753;-80
2023/01/11 07:43:47;;;;;;;48.00;18.60;;;;;;;6.19;100.00;100536.91;682418;1262;140190;-80
2023/01/11 07:58:50;;;;;;;54.80;24.70;;;;;;;6.15;100.00;100512.17;682554;1262;139199;-80
2023/01/11 08:29:15;;;;;;;59.30;24.40;;;;;;;6.32;100.00;100504.25;682549;1262;140450;-80
2023/01/11 08:44:18;;;;;;;103.80;36.20;;;;;;;6.63;100.00;100501.02;682184;1262;139211;-80
2023/01/11 08:59:36;;;;;;;37.50;21.00;;;;;;;7.20;100.00;100506.44;682399;1264;139148;-80
2023/01/11 09:14:40;;;;;;;30.60;16.50;;;;;;;7.50;100.00;100514.76;682499;1262;140350;-80
2023/01/11 09:29:44;;;;;;;30.20;15.70;;;;;;;7.90;99.94;100513.11;682406;1261;139558;-80
2023/01/11 09:44:59;;;;;;;121.30;31.90;;;;;;;8.11;97.00;100505.55;682406;1262;139226;-80
2023/01/11 10:00:18;;;;;;;54.00;24.60;;;;;;;7.56;95.46;100493.95;682243;1264;139144;-80
2023/01/11 10:15:53;;;;;;;70.40;31.70;;;;;;;7.38;96.09;100478.53;682359;1259;139235;-80
2023/01/11 10:31:28;;;;;;;113.50;39.70;;;;;;;7.71;94.67;100448.54;682471;1262;140271;-80
2023/01/11 10:46:38;;;;;;;97.20;35.60;;;;;;;7.77;95.32;100420.39;682325;1259;151828;-80
2023/01/11 11:01:54;;;;;;;64.70;29.80;;;;;;;7.87;95.64;100402.11;682373;1263;139381;-80
2023/01/11 11:17:22;;;;;;;40.30;18.60;;;;;;;7.93;95.04;100380.05;682615;1262;139474;-80
2023/01/11 11:32:34;;;;;;;33.60;18.40;;;;;;;7.93;93.17;100351.67;681894;1265;139469;-80
2023/01/11 11:47:39;;;;;;;64.20;27.00;;;;;;;7.77;90.01;100340.81;682630;1263;140232;-79
2023/01/11 12:02:55;;;;;;;69.20;29.30;;;;;;;7.67;87.96;100309.58;682349;1261;140511;-79
2023/01/11 12:18:25;;;;;;;53.70;23.30;;;;;;;7.62;87.13;100287.98;682177;1264;139113;-79
2023/01/11 12:33:37;;;;;;;31.70;15.60;;;;;;;7.63;86.62;100261.13;682171;1264;140458;-79
2023/01/11 12:49:14;;;;;;;42.30;19.00;;;;;;;7.63;86.37;100239.50;682681;1262;138739;-80
2023/01/11 13:04:26;;;;;;;33.20;15.40;;;;;;;7.63;86.07;100214.66;682407;1262;139890;-79
2023/01/11 13:19:40;;;;;;;54.50;27.90;;;;;;;7.77;85.96;100206.41;682580;1262;139380;-79
2023/01/11 13:34:54;;;;;;;44.50;23.50;;;;;;;7.76;86.90;100190.84;682349;1264;139714;-80
2023/01/11 13:50:27;;;;;;;76.20;35.40;;;;;;;7.58;87.70;100174.30;682157;1263;139218;-80
2023/01/11 14:05:43;;;;;;;51.10;23.70;;;;;;;7.43;89.50;100159.08;682195;1266;138805;-79
2023/01/11 14:21:02;;;;;;;56.00;25.70;;;;;;;7.32;90.75;100149.83;682268;1264;139422;-79
2023/01/11 14:36:13;;;;;;;;;;;;;;;7.28;91.54;100136.59;682366;1263;139379;-79
2023/01/11 14:51:24;;;;;;;62.10;27.60;;;;;;;7.11;92.55;100132.92;682235;1263;126058;-79
2023/01/11 15:06:52;;;;;;;53.60;25.00;;;;;;;7.05;93.42;100111.12;682449;1271;139895;-79
2023/01/11 15:21:58;;;;;;;69.40;31.50;;;;;;;7.01;93.80;100107.30;682082;1264;139359;-79
2023/01/11 15:37:02;;;;;;;54.20;27.20;;;;;;;6.95;94.53;100098.52;682344;1265;139751;-81
2023/01/11 15:52:22;;;;;;;78.20;31.70;;;;;;;6.97;94.35;100097.33;681972;1265;139290;-80
2023/01/11 16:07:50;;;;;;;84.30;31.20;;;;;;;6.59;96.26;100081.71;682051;1265;138849;-80
2023/01/11 16:22:57;;;;;;;49.40;26.50;;;;;;;6.30;99.59;100081.95;682522;1272;140055;-81
2023/01/11 16:38:02;;;;;;;51.60;22.20;;;;;;;6.44;99.35;100075.07;682161;1276;139366;-81
2023/01/11 16:53:25;;;;;;;60.70;27.20;;;;;;;6.46;98.39;100064.23;682383;1259;139985;-80
2023/01/11 17:08:33;;;;;;;78.80;35.80;;;;;;;6.49;98.48;100059.05;682168;1263;139651;-80
2023/01/11 17:23:44;;;;;;;57.40;30.30;;;;;;;6.49;98.27;100045.15;682351;1260;139355;-80
2023/01/11 17:38:48;;;;;;;41.20;19.70;;;;;;;6.55;97.78;100030.41;681898;1260;139578;-80
2023/01/11 17:53:52;;;;;;;39.40;20.50;;;;;;;6.52;97.03;100031.40;681844;1261;138685;-79
2023/01/11 18:08:57;;;;;;;36.40;19.20;;;;;;;6.67;96.61;100016.69;682016;1263;140762;-79
2023/01/11 18:24:10;;;;;;;44.50;22.50;;;;;;;6.60;96.87;100006.41;681912;1264;139364;-80
2023/01/11 18:39:13;;;;;;;48.10;24.40;;;;;;;6.59;96.81;99992.63;682040;1260;139607;-81
2023/01/11 18:54:17;;;;;;;44.20;23.10;;;;;;;6.67;96.34;100000.39;681631;1264;139488;-81
2023/01/11 19:09:43;;;;;;;47.10;25.20;;;;;;;6.62;97.49;100000.35;681666;1264;138721;-80
2023/01/11 19:24:47;;;;;;;55.90;27.50;;;;;;;6.35;99.42;99995.48;681743;1275;138818;-80
2023/01/11 19:39:50;;;;;;;57.60;29.30;;;;;;;6.33;99.84;99998.36;681891;1265;138956;-81
2023/01/11 19:54:54;;;;;;;54.60;28.50;;;;;;;6.36;100.00;99984.24;681741;1264;138720;-80
2023/01/11 20:09:57;;;;;;;58.50;28.10;;;;;;;6.26;100.00;99974.06;681729;1260;138969;-81
2023/01/11 20:25:03;;;;;;;59.00;26.90;;;;;;;6.18;100.00;99967.20;681756;1269;141811;-80
2023/01/11 20:40:07;;;;;;;62.20;29.90;;;;;;;6.00;100.00;99964.48;681938;1260;139654;-81
2023/01/11 20:55:10;;;;;;;54.60;27.30;;;;;;;5.94;100.00;99960.25;681725;1262;139506;-81
2023/01/11 21:10:16;;;;;;;62.30;31.30;;;;;;;5.80;100.00;99955.36;681813;1260;139826;-79
2023/01/11 21:25:21;;;;;;;67.50;32.80;;;;;;;5.67;100.00;99959.23;681816;1264;138599;-80
2023/01/11 21:40:32;;;;;;;67.10;32.30;;;;;;;5.69;100.00;99963.24;682149;1261;139240;-80
2023/01/11 21:55:37;;;;;;;59.30;30.10;;;;;;;5.75;100.00;99959.50;681874;1261;138967;-80
2023/01/11 22:10:40;;;;;;;63.10;30.20;;;;;;;5.73;100.00;99968.20;682118;1263;138989;-80
2023/01/11 22:25:43;;;;;;;71.90;30.50;;;;;;;5.78;100.00;99967.30;682039;1262;139589;-80
2023/01/11 22:40:49;;;;;;;70.00;33.20;;;;;;;5.80;100.00;99972.02;679626;1261;3108801;-80
2023/01/11 22:55:52;;;;;;;56.30;26.30;;;;;;;5.82;100.00;99972.35;681994;1264;141310;-80
2023/01/11 23:10:59;;;;;;;52.70;25.30;;;;;;;5.89;100.00;99975.52;682181;1262;138828;-78
2023/01/11 23:26:04;;;;;;;52.90;25.30;;;;;;;6.03;100.00;99967.77;681941;1262;139458;-78
2023/01/11 23:56:34;;;;;;;48.30;24.60;;;;;;;6.27;100.00;99963.92;681913;1265;140289;-79
